Tiempo atmosférico en la estación meteorológica de Cuenca, Cuenca (945 m.)



Fecha
DESCASC
Temp. máxima en grados centígrados (hora)
DESCASC
Temp. mínima en grados centígrados (hora)
DESCASC
Temp. media en grados centígrados
DESCASC
Racha de viento máxima en m/sg (hora)
DESCASC
Velocidad máxima media en intervalos de 10 minutos(hora)
DESCASC
Precipitaciones diarias en mm
DESCASC
Precipitaciones de 00:00 a 06:00 en mm
DESCASC
Precipitaciones de 06:00 a 12:00 en mm
DESCASC
Precipitaciones de 12:00 a 18:00 en mm
DESCASC
Precipitaciones de 18:00 a 24:00 en mm
DESCASC
14-10-2019 20.5 (15:30) 9.5 (00:00) 15 13.33 (15:40) 5.56 (15:40) 2.4 0 2.2 0.2 0
20-09-2019 22.4 (14:40) 14.9 (00:00) 18.6 11.11 (20:00) 4.44 (17:30) 0 0 0 0 0
15-10-2019 16.7 (17:20) 4.8 (00:00) 10.8 9.44 (14:00) 4.17 (14:00) 0 0 0 0 0
13-10-2019 26.4 (16:20) 14.7 (00:00) 20.5 9.72 (17:20) 4.17 (17:20) 0 0 0 0 0
10-10-2019 25 (17:10) 15.5 (00:00) 20.3 8.33 (11:20) 4.17 (10:50) 0 0 0 0 0
07-10-2019 28.9 (17:50) 12.4 (00:00) 20.6 9.72 (10:50) 4.17 (10:20) 0 0 0 0 0
22-09-2019 21.1 (18:20) 12.7 (00:00) 16.9 8.89 (15:50) 3.89 (15:00) 2.4 0 0 2.4 0
18-10-2019 21.3 (17:10) 12 (00:00) 16.6 8.89 (15:40) 3.89 (15:40) 0 0 0 0 0
11-10-2019 26.6 (17:20) 13.7 (00:00) 20.2 8.33 (15:40) 3.89 (12:10) 0 0 0 0 0
01-10-2019 28 (15:00) 10.9 (00:00) 19.4 7.78 (15:30) 3.89 (15:10) 0 0 0 0 0
03-10-2019 25.4 (17:10) 7.7 (00:00) 16.5 7.78 (10:50) 3.89 (16:00) 0 0 0 0 0
21-09-2019 22.4 (16:30) 13.6 (00:00) 18 7.5 (17:20) 3.61 (17:20) 13.4 13.4 0 0 0
19-10-2019 15.9 (15:50) 12.4 (00:00) 14.1 8.06 (14:10) 3.61 (14:50) 4.8 0 0 0 4.8
04-10-2019 29.3 (16:10) 8.1 (00:00) 18.7 5.83 (17:20) 3.33 (17:20) 0 0 0 0 0
12-10-2019 26.5 (16:10) 15.1 (00:00) 20.8 7.78 (11:00) 3.33 (19:30) 0 0 0 0 0
28-09-2019 29.4 (16:30) 10.5 (00:00) 19.9 6.67 (17:20) 3.33 (15:30) 0 0 0 0 0
29-09-2019 30 (16:20) 11.6 (00:00) 20.8 6.39 (14:30) 3.33 (15:00) 0 0 0 0 0
30-09-2019 30.2 (16:00) 10.1 (00:00) 20.2 7.5 (14:50) 3.06 (16:30) 0 0 0 0 0
06-10-2019 27.8 (17:10) 10 (00:00) 18.9 6.67 (14:00) 3.06 (14:00) 0 0 0 0 0
02-10-2019 24 (16:30) 10.4 (00:00) 17.2 7.78 (11:20) 3.06 (14:30) 0 0 0 0 0
27-09-2019 28.9 (16:30) 11.8 (00:00) 20.3 6.94 (16:40) 3.06 (15:20) 0 0 0 0 0
25-09-2019 24.7 (17:00) 13.9 (00:00) 19.3 6.67 (17:10) 3.06 (17:50) 0 0 0 0 0
24-09-2019 27.1 (17:20) 9.9 (00:00) 18.5 6.39 (16:30) 3.06 (15:00) 0 0 0 0 0
09-10-2019 30.3 (16:50) 12.1 (00:00) 21.2 6.11 (16:50) 2.78 (16:50) 0 0 0 0 0
05-10-2019 28.2 (17:10) 8.9 (00:00) 18.6 5.83 (17:30) 2.78 (17:30) 0 0 0 0 0
26-09-2019 28 (18:00) 10.9 (00:00) 19.4 4.72 (15:40) 2.78 (15:10) 0 0 0 0 0
16-10-2019 19.8 (17:10) 4 (00:00) 11.9 5.83 (17:20) 2.78 (17:20) 0 0 0 0 0
23-09-2019 23.8 (16:40) 8.5 (00:00) 16.1 5 (17:00) 2.78 (16:10) 0 0 0 0 0
08-10-2019 30 (17:10) 11.6 (00:00) 20.8 5.83 (18:20) 2.5 (17:10) 0 0 0 0 0
17-10-2019 18.7 (17:40) 3.7 (00:00) 11.2 4.72 (14:00) 2.22 (17:50) 0 0 0 0 0

Gráficas

Temp. máximas Temp. mínimas Temp. medias Precipitaciones Rachas de viento máximas Velocidades máximas media en intervalos de 10 minutos

Datos horarios

Fecha y hora oficial Temperatura (ºC) Velocidad del viento (km/h) Dirección del viento Racha (km/h) Dirección de racha Precipitación (mm) Presión (hPa) Tendencia (hPa) Humedad (%)
2019-10-19 23:00:00 14.4 10 Sur 23 Sudeste 0.2 900.1 -0.5 75
2019-10-19 22:00:00 14.4 8 Sudeste 22 Sudeste 0 899.8 -1.2 67
2019-10-19 21:00:00 14.5 10 Sur 22 Sudoeste 0 900.5 -1.1 69
2019-10-19 20:00:00 14.5 9 Sudeste 20 Sudeste 0 900.6 -1.6 79
2019-10-19 19:00:00 14.6 6 Sudeste 15 Sudeste 0 901 -1.5 86
2019-10-19 18:00:00 14.5 4 Sudeste 16 Sudeste 0 901.6 -1.4 88
2019-10-19 17:00:00 14.5 9 Sur 22 Sur 0 902.2 -1.6 88
2019-10-19 16:00:00 15.6 13 Sur 24 Sudeste 0 902.5 -1.8 71
2019-10-19 15:00:00 15.7 12 Sudoeste 29 Sudoeste 0 903 -1.5 67
2019-10-19 14:00:00 14.5 11 Sudoeste 25 Sur 0 903.8 -0.9 80
2019-10-19 13:00:00 13.7 9 Sur 22 Sudoeste 0 904.3 -0.5 86
2019-10-19 12:00:00 14.1 6 Sur 14 Sur 0 904.5 0 77
2019-10-19 11:00:00 13.3 5 Sur 14 Sudoeste 0 904.7 -0.1 78
2019-10-19 10:00:00 12.8 6 Sur 12 Sudoeste 0 904.8 -0.2 80
2019-10-19 09:00:00 12.5 6 Sur 12 Sur 0 904.5 -0.5 82
2019-10-19 08:00:00 12.5 0 Calma 7 Oeste 0 904.8 -0.4 85
2019-10-19 07:00:00 12.5 4 Sudoeste 11 Sudoeste 0 905 -0.7 85
2019-10-19 06:00:00 13.1 4 Sudoeste 8 Oeste 0 905 -1.2 82
2019-10-19 05:00:00 13.6 3 Sur 12 Sur 0 905.2 -1.4 82
2019-10-19 04:00:00 13.5 4 Sudeste 8 Sudeste 0 905.7 -1.2 82
2019-10-19 03:00:00 13.4 3 Sudeste 9 Sur 0 906.2 -1.1 79
2019-10-19 02:00:00 14.1 4 Sur 12 Sudeste 0 906.6 -1 76
2019-10-19 01:00:00 14.2 4 Sudeste 10 Sudeste 0 906.9 -0.7 75
2019-10-19 00:00:00 14.8 3 Sudeste 6 Sur 0 907.3 -0.3 72
2019-10-18 23:00:00 15.2 4 Este 8 Este 0 907.6 0.2 71
2019-10-18 22:00:00 15.7 3 Sur 10 Sudeste 0 907.6 0.2 69
2019-10-18 21:00:00 16.8 4 Sudeste 12 Sudoeste 0 907.6 -0.2 64
2019-10-18 20:00:00 18 6 Sudoeste 20 Sudoeste 0 907.4 -0.8 57
2019-10-18 19:00:00 19.4 10 Sudoeste 21 Oeste 0 907.4 -1.1 54
2019-10-18 18:00:00 20.3 10 Oeste 23 Oeste 0 907.8 -1.2 47
2019-10-18 17:00:00 21.1 7 Oeste 20 Oeste 0 908.2 -1.6 51
2019-10-18 16:00:00 20.8 12 Oeste 32 Sudoeste 0 908.5 -2 52
2019-10-18 15:00:00 19.4 7 Noroeste 17 Noroeste 0 909 -1.6 67
2019-10-18 14:00:00 18 4 Sur 12 Sudoeste 0 909.8 -1.1 71
2019-10-18 13:00:00 16 5 Sudoeste 11 Sudoeste 0 910.5 -0.2 80
2019-10-18 12:00:00 14.9 6 Sur 10 Sudoeste 0 910.6 0.3 84
2019-10-18 11:00:00 14.2 5 Oeste 10 Oeste 0 910.9 0.8 88
2019-10-18 10:00:00 13.8 4 Sur 8 Sur 0 910.7 0.5 89
2019-10-18 09:00:00 13.5 3 Sur 6 Sudeste 0 910.3 -0.2 89
2019-10-18 08:00:00 13.2 3 Este 10 Sudeste 0 910.1 -0.2 89
2019-10-18 07:00:00 12.7 0 Calma 5 Sudeste 0 910.2 -0.5 94
2019-10-18 06:00:00 12.2 0 Calma 8 Oeste 0 910.5 -0.4 93
2019-10-18 05:00:00 12.2 0 Calma 8 Oeste 0 910.3 -0.7 92
2019-10-18 04:00:00 12 2 Sudeste 5 Sudoeste 0 910.7 -0.7 85
2019-10-18 03:00:00 12.5 0 Calma 6 Oeste 0 910.9 -0.8 83
2019-10-18 02:00:00 13.4 3 Sudeste 8 Sudeste 0 911 -0.7 81
2019-10-18 01:00:00 14.4 0 Calma 6 Nordeste 0 911.4 -0.2 77
2019-10-18 00:00:00 14.6 3 Norte 14 Nordeste 0 911.7 0.2 75
2019-10-17 23:00:00 14.8 6 Norte 15 Norte 0 911.7 0.5 75
2019-10-17 22:00:00 15 4 Norte 13 Norte 0 911.6 0.9 74
2019-10-17 21:00:00 15.5 3 Noroeste 13 Noroeste 0 911.5 0.9 71
2019-10-17 20:00:00 15.9 4 Noroeste 12 Noroeste 0 911.2 0.5 69
2019-10-17 19:00:00 16.5 4 Noroeste 10 Norte 0 910.7 -0.1 65
2019-10-17 18:00:00 17.2 6 Noroeste 17 Noroeste 0 910.6 -0.6 61
2019-10-17 17:00:00 17.7 5 Noroeste 14 Noroeste 0 910.7 -0.8 59
2019-10-17 16:00:00 17.4 5 Noroeste 16 Norte 0 910.8 -1.1 59
2019-10-17 15:00:00 17 5 Noroeste 14 Norte 0 911.2 -0.7 60
2019-10-17 14:00:00 16.4 7 Noroeste 17 Noroeste 0 911.5 -0.5 58
2019-10-17 13:00:00 15.5 5 Noroeste 16 Norte 0 911.9 0.1 56
2019-10-17 12:00:00 13 4 Oeste 8 Sudoeste 0 911.9 0.8 59
2019-10-17 11:00:00 10.7 2 Sudoeste 5 Oeste 0 912 1.5 64
2019-10-17 10:00:00 6 2 Sudoeste 5 Sudoeste 0 911.8 1.8 76
2019-10-17 09:00:00 3.9 2 Sur 9 Norte 0 911.1 1.2 82
2019-10-17 08:00:00 4.1 6 Norte 15 Nordeste 0 910.5 0.5 84
2019-10-17 07:00:00 4 0 Calma 5 Sudeste 0 910 -0.5 81
2019-10-17 06:00:00 4.3 3 Sudeste 5 Sudeste 0 909.9 -0.8 80
2019-10-17 05:00:00 5.1 0 Calma 4 Norte 0 910 -1 78
2019-10-17 04:00:00 5.9 0 Calma 4 Sudeste 0 910.5 -0.7 76
2019-10-17 03:00:00 6.7 2 Norte 8 Norte 0 910.7 -0.7 73
2019-10-17 02:00:00 7.5 2 Nordeste 8 Norte 0 911 -0.3 70
2019-10-17 01:00:00 8.2 4 Norte 8 Norte 0 911.2 0.2 67
2019-10-17 00:00:00 9.4 0 Calma 5 Oeste 0 911.4 0.4 64
2019-10-16 23:00:00 10.6 0 Calma 8 Oeste 0 911.3 1.1 59
2019-10-16 22:00:00 12 4 Norte 9 Norte 0 911 1 54
2019-10-16 21:00:00 13.6 3 Noroeste 10 Oeste 0 911 1.1 49
2019-10-16 20:00:00 15.2 4 Noroeste 10 Oeste 0 910.2 -0.1 44
2019-10-16 19:00:00 16.8 6 Oeste 15 Noroeste 0 910 -0.6 37
2019-10-16 18:00:00 18.4 8 Oeste 21 Oeste 0 909.9 -1.1 34
2019-10-16 17:00:00 19.5 7 Oeste 16 Oeste 0 910.3 -1.4 33
2019-10-16 16:00:00 18.5 6 Noroeste 16 Oeste 0 910.6 -1.8 37
2019-10-16 15:00:00 18.5 4 Noroeste 13 Oeste 0 911 -1.8 40
2019-10-16 14:00:00 17.1 8 Oeste 15 Sudoeste 0 911.7 -1.3 44
2019-10-16 13:00:00 15.6 6 Oeste 17 Noroeste 0 912.4 -0.4 51
2019-10-16 12:00:00 13.6 7 Oeste 14 Noroeste 0 912.8 0.5 57
2019-10-16 11:00:00 10.5 3 Sudoeste 6 Sudoeste 0 913 0.9 61
2019-10-16 10:00:00 5.9 3 Sudoeste 5 Oeste 0 912.8 1 78
2019-10-16 09:00:00 4.1 0 Calma 4 Oeste 0 912.3 0.7 83
2019-10-16 08:00:00 4 2 Sudoeste 5 Oeste 0 912.1 0.3 82
2019-10-16 07:00:00 4.5 0 Calma 4 Sudoeste 0 911.8 -0.6 81
2019-10-16 06:00:00 4.9 3 Oeste 5 Sudoeste 0 911.6 -1 78
2019-10-16 05:00:00 5.4 3 Sur 6 Norte 0 911.8 -1 77
2019-10-16 04:00:00 5.7 2 Noroeste 5 Oeste 0 912.4 -0.7 76
2019-10-16 03:00:00 5.6 2 Nordeste 7 Norte 0 912.6 -0.6 75
2019-10-16 02:00:00 5.9 4 Norte 8 Noroeste 0 912.8 -0.3 73
2019-10-16 01:00:00 6.7 4 Norte 7 Norte 0 913.1 0.2 70
2019-10-16 00:00:00 7.7 0 Calma 6 Norte 0 913.2 0.7 66
2019-10-15 23:00:00 8.8 3 Norte 6 Norte 0 913.1 1 62
2019-10-15 22:00:00 10 3 Norte 9 Norte 0 912.9 1.3 57
2019-10-15 21:00:00 11.4 3 Norte 9 Norte 0 912.5 1.3 51
2019-10-15 20:00:00 12.8 3 Noroeste 16 Noroeste 0 912.1 1.1 45
2019-10-15 19:00:00 14.8 4 Noroeste 17 Noroeste 0 911.6 0.4 39
2019-10-15 18:00:00 16.1 7 Noroeste 19 Noroeste 0 911.2 -0.3 34
2019-10-15 17:00:00 16.6 6 Norte 23 Noroeste 0 911 -1 35
2019-10-15 16:00:00 15.7 9 Noroeste 24 Noroeste 0 911.2 -0.9 40
2019-10-15 15:00:00 15.4 6 Noroeste 29 Noroeste 0 911.5 -0.7 42
2019-10-15 14:00:00 13.6 15 Noroeste 34 Noroeste 0 912 -0.2 46
2019-10-15 13:00:00 13 10 Noroeste 24 Noroeste 0 912.1 0.3 52
2019-10-15 12:00:00 11.5 6 Norte 21 Noroeste 0 912.2 1.2 58
2019-10-15 11:00:00 9.5 6 Noroeste 19 Noroeste 0 912.2 1.8 65
2019-10-15 10:00:00 6.9 6 Noroeste 14 Noroeste 0 911.8 1.8 74
2019-10-15 09:00:00 4.8 3 Sudoeste 7 Este 0 911 1.3 89
2019-10-15 08:00:00 5.3 3 Oeste 14 Noroeste 0 910.4 1.2 87
2019-10-15 07:00:00 5.9 3 Noroeste 14 Noroeste 0 910 0.9 86
2019-10-15 06:00:00 6.6 7 Noroeste 19 Norte 0 909.7 0.6 85
2019-10-15 05:00:00 7.4 7 Noroeste 22 Noroeste 0 909.2 0.1 85
2019-10-15 04:00:00 7.5 5 Noroeste 19 Oeste 0 909.1 0.3 86
2019-10-15 03:00:00 8.1 8 Noroeste 23 Noroeste 0 909.1 0.4 83
2019-10-15 02:00:00 8.6 7 Noroeste 23 Noroeste 0 909.1 0.9 83
2019-10-15 01:00:00 9.2 9 Noroeste 22 Noroeste 0 908.8 0.7 83
2019-10-15 00:00:00 9.5 8 Noroeste 19 Oeste 0 908.7 0.9 85
2019-10-14 23:00:00 9.8 6 Noroeste 17 Oeste 0 908.2 1.6 78
2019-10-14 22:00:00 10.9 8 Noroeste 32 Norte 0 908.1 2.5 75
2019-10-14 21:00:00 12.1 15 Noroeste 40 Noroeste 0 907.8 2.3 68
2019-10-14 20:00:00 16 14 Oeste 36 Oeste 0 906.6 1.5 45
2019-10-14 19:00:00 17.9 10 Oeste 27 Sudoeste 0 905.6 0.3 50
2019-10-14 18:00:00 19 15 Oeste 31 Oeste 0 905.5 0.4 49
2019-10-14 17:00:00 19.5 12 Oeste 34 Oeste 0 905.1 -0.8 54
2019-10-14 16:00:00 18.5 11 Oeste 48 Oeste 0 905.3 -1.7 66
2019-10-14 15:00:00 19.7 15 Sudoeste 36 Oeste 0.2 905.1 -2.8 54
2019-10-14 14:00:00 18.8 16 Sur 33 Sudoeste 0 905.9 -1.8 60
2019-10-14 13:00:00 17.1 12 Sudeste 24 Sur 0 907 -0.6 75
2019-10-14 12:00:00 15.3 6 Sudeste 21 Sudeste 0 907.9 1.7 85
2019-10-14 11:00:00 14.4 11 Sudeste 28 Sudeste 1.8 907.7 1.7 89
2019-10-14 10:00:00 15.1 10 Sur 41 Sur 0.4 907.6 1.7 83
2019-10-14 09:00:00 16.1 10 Sur 23 Sudeste 0 906.2 0.4 76
2019-10-14 08:00:00 16 10 Sudeste 23 Sudeste 0 906 -0.2 75
2019-10-14 07:00:00 16.1 12 Sudeste 28 Sur 0 905.9 0 78
2019-10-14 06:00:00 16.7 10 Sudeste 26 Sur 0 905.8 -1.6 74
2019-10-14 05:00:00 17.2 13 Sur 35 Sur 0 906.2 -1.9 74
2019-10-14 04:00:00 17.5 14 Sudeste 35 Sudeste 0 905.9 -2.8 71
2019-10-14 03:00:00 17.3 8 Sur 23 Sur 0 907.4 -1.5 72
2019-10-14 02:00:00 17.9 10 Sur 28 Sudeste 0 908.1 -0.8 69
2019-10-14 01:00:00 17.8 13 Sudeste 28 Sudeste 0 908.7 -0.2 72
2019-10-14 00:00:00 17.4 8 Sudeste 21 Sudeste 0 908.9 0.1 48
2019-10-13 23:00:00 16.8 2 Noroeste 5 Sur 0 908.9 0 40
2019-10-13 22:00:00 18.9 2 Este 10 Sudeste 0 908.9 0.4 35
2019-10-13 21:00:00 20.7 6 Sudeste 16 Sudoeste 0 908.8 0.2 30
2019-10-13 20:00:00 22.6 8 Sur 21 Oeste 0 908.9 0.1 27
2019-10-13 19:00:00 24.8 13 Sudoeste 27 Sur 0 908.5 -0.3 22
2019-10-13 18:00:00 25.8 12 Sur 35 Sudoeste 0 908.6 -0.5 28
2019-10-13 17:00:00 26.2 14 Sudoeste 32 Sudoeste 0 908.8 -1 23
2019-10-13 16:00:00 26 13 Sudoeste 24 Sudoeste 0 908.8 -1.6 22
2019-10-13 15:00:00 25.6 10 Sur 26 Sur 0 909.1 -1.7 34
2019-10-13 14:00:00 24.3 11 Sudoeste 22 Sur 0 909.8 -0.8 45
2019-10-13 13:00:00 22.6 9 Sur 19 Sudeste 0 910.4 0.2 56
2019-10-13 12:00:00 20.7 9 Sur 21 Sur 0 910.8 1.1 64
2019-10-13 11:00:00 19 10 Sudeste 23 Sudeste 0 910.6 1.2 69
2019-10-13 10:00:00 16.9 9 Sur 20 Sudeste 0 910.2 0.9 79
2019-10-13 09:00:00 14.8 9 Sudeste 18 Sur 0 909.7 0.4 87
2019-10-13 08:00:00 14.9 8 Sur 18 Sur 0 909.4 0 86
2019-10-13 07:00:00 15.4 7 Sur 19 Sudeste 0 909.3 -0.3 83
2019-10-13 06:00:00 15.7 7 Sudeste 19 Sur 0 909.3 -0.9 81
2019-10-13 05:00:00 15.7 8 Sudeste 20 Sudeste 0 909.4 -1.5 81
2019-10-13 04:00:00 16.1 7 Sudeste 17 Sur 0 909.6 -1.5 80
2019-10-13 03:00:00 16.8 5 Sudeste 14 Este 0 910.2 -1.5 78
2019-10-13 02:00:00 17.1 6 Nordeste 12 Este 0 910.9 0 78
2019-10-13 01:00:00 16.7 3 Este 13 Sudeste 0 911.1 0.8 80
2019-10-13 00:00:00 16.4 5 Noroeste 12 Noroeste 0 911.7 2 82
2019-10-12 23:00:00 16.8 4 Sudeste 20 Sudeste 0 910.9 1.2 79
2019-10-12 22:00:00 17.8 11 Sudeste 25 Sudeste 0 910.3 0.8 75
2019-10-12 21:00:00 19.2 9 Sudeste 20 Sudeste 0 909.7 0.2 68
2019-10-12 20:00:00 20.8 10 Sudeste 25 Sudeste 0 909.7 -0.1 60
2019-10-12 19:00:00 22.6 11 Sudeste 23 Sur 0 909.5 -0.5 51
2019-10-12 18:00:00 24.2 9 Sudeste 22 Sudeste 0 909.5 -1 42
2019-10-12 17:00:00 25.1 9 Sur 21 Sudeste 0 909.8 -1.5 39
2019-10-12 16:00:00 26.3 9 Sudeste 21 Sur 0 910 -1.5 37
2019-10-12 15:00:00 24.5 10 Sur 22 Sudeste 0 910.5 -1.3 42
2019-10-12 14:00:00 23.1 10 Sudeste 22 Sur 0 911.3 -0.3 40
2019-10-12 13:00:00 23.4 11 Sudeste 22 Sudeste 0 911.5 0.1 42
2019-10-12 12:00:00 20.4 8 Sudeste 25 Sudeste 0 911.8 0.8 44
2019-10-12 11:00:00 19.7 10 Sudeste 28 Sudeste 0 911.6 0.6 48
2019-10-12 10:00:00 17.2 2 Sudoeste 11 Sur 0 911.4 0.3 68
2019-10-12 09:00:00 15.4 2 Norte 7 Este 0 911 -0.2 77
2019-10-12 08:00:00 15.2 0 Calma 6 Sudoeste 0 911 -0.5 81
2019-10-12 07:00:00 15.6 2 Sudeste 5 Oeste 0 911.1 -0.5 82
2019-10-12 06:00:00 15.9 3 Sudoeste 7 Sur 0 911.2 -0.9 82
2019-10-12 05:00:00 16.2 3 Sur 9 Sur 0 911.5 -0.5 82
2019-10-12 04:00:00 17 4 Sur 12 Sudeste 0 911.6 -0.6 80
2019-10-12 03:00:00 17.3 8 Sur 17 Sudeste 0 912.1 -0.2 78
2019-10-12 02:00:00 17.6 7 Sur 16 Sur 0 912 -0.5 78
2019-10-12 01:00:00 18.5 7 Sur 21 Sudeste 0 912.2 0.1 72
2019-10-12 00:00:00 19 10 Sudeste 23 Sudeste 0 912.3 0.8 70
2019-10-11 23:00:00 19.3 6 Sudeste 18 Sudeste 0 912.5 1.1 67
2019-10-11 22:00:00 20.1 8 Sudeste 20 Sur 0 912.1 0.7 56
2019-10-11 21:00:00 21.3 8 Sudeste 17 Sudeste 0 911.5 0.2 47
2019-10-11 20:00:00 21.9 6 Sudeste 24 Sur 0 911.4 0 44
2019-10-11 19:00:00 23.6 10 Sur 22 Sur 0 911.4 -0.7 42
2019-10-11 18:00:00 25 11 Sur 27 Sur 0 911.3 -1.3 38
2019-10-11 17:00:00 26.4 10 Sur 24 Sudeste 0 911.4 -2.1 37
2019-10-11 16:00:00 26 12 Sudeste 30 Sudeste 0 912.1 -2.2 38
2019-10-11 15:00:00 25.2 12 Sudeste 27 Sudeste 0 912.6 -2 42
2019-10-11 14:00:00 24 11 Sur 25 Sudeste 0 913.5 -1.2 47
2019-10-11 13:00:00 23 12 Sudeste 28 Sudeste 0 914.3 -0.1 53
2019-10-11 12:00:00 21.3 10 Sur 23 Sur 0 914.6 0.7 58
2019-10-11 11:00:00 19.6 9 Sur 18 Sur 0 914.7 1 68
2019-10-11 10:00:00 16.1 3 Sudeste 9 Este 0 914.4 0.9 87
2019-10-11 09:00:00 13.9 2 Sudeste 8 Sudeste 0 913.9 0.3 93
2019-10-11 08:00:00 13.8 2 Sudeste 9 Este 0 913.7 0.1 93
2019-10-11 07:00:00 14 4 Este 9 Este 0 913.5 -0.3 94
2019-10-11 06:00:00 13.9 5 Sudeste 8 Sudeste 0 913.6 -0.6 94
2019-10-11 05:00:00 14.1 2 Este 6 Sudeste 0 913.6 -0.6 93
2019-10-11 04:00:00 14.2 4 Este 9 Sudeste 0 913.8 -0.4 93
2019-10-11 03:00:00 14.3 4 Este 7 Sudeste 0 914.2 0 90
2019-10-11 02:00:00 14.7 3 Sudeste 13 Sudeste 0 914.2 0.2 89
2019-10-11 01:00:00 15.3 4 Sur 9 Sudeste 0 914.2 0.4 87
2019-10-11 00:00:00 16.1 3 Sur 10 Sudeste 0 914.2 0.9 82
2019-10-10 23:00:00 17 4 Sudeste 18 Sur 0 914 1.1 77
2019-10-10 22:00:00 18 8 Sudeste 17 Sur 0 913.8 1.2 73
2019-10-10 21:00:00 19 7 Sudeste 18 Sudeste 0 913.3 0.9 68
2019-10-10 20:00:00 20.6 9 Sudeste 23 Sudeste 0 912.9 0.7 63
2019-10-10 19:00:00 22.8 10 Sudeste 22 Sur 0 912.6 0.2 55
2019-10-10 18:00:00 24.5 10 Sudeste 24 Este 0 912.4 -0.7 50
2019-10-10 17:00:00 24.9 9 Sur 23 Sur 0 912.2 -1.3 49
2019-10-10 16:00:00 24.1 11 Sudeste 25 Sur 0 912.4 -1.5 51
2019-10-10 15:00:00 23.5 10 Sudeste 26 Sudeste 0 913.1 -1 54
2019-10-10 14:00:00 22.8 10 Sudeste 28 Sudeste 0 913.5 -0.4 55
2019-10-10 13:00:00 21.4 11 Sudeste 28 Sudeste 0 913.9 0.2 62
2019-10-10 12:00:00 19.8 13 Sur 30 Sur 0 914.1 1.1 68
2019-10-10 11:00:00 18.5 11 Sudeste 29 Sur 0 913.9 1.4 74
2019-10-10 10:00:00 17.1 10 Sudeste 22 Sudeste 0 913.7 1.4 80
2019-10-10 09:00:00 15.9 8 Sudeste 23 Sudeste 0 913 1.1 84
2019-10-10 08:00:00 15.6 9 Sur 23 Sur 0 912.5 0.7 87
2019-10-10 07:00:00 16.1 5 Sur 16 Sur 0 912.3 0.4 86
2019-10-10 06:00:00 15.9 7 Sudeste 16 Sudeste 0 911.9 -0.1 87
2019-10-10 05:00:00 16.1 3 Nordeste 8 Sudeste 0 911.8 -0.2 87
2019-10-10 04:00:00 16.6 3 Este 19 Sur 0 911.9 0 86
2019-10-10 03:00:00 16.9 6 Sudeste 15 Sudeste 0 912 0.4 85
2019-10-10 02:00:00 17.3 5 Sudeste 10 Este 0 912 0.7 81
2019-10-10 01:00:00 17.8 2 Este 12 Sudeste 0 911.9 1.2 76
2019-10-10 00:00:00 18.2 6 Sudeste 14 Sudeste 0 911.6 1.2 72
2019-10-09 23:00:00 18.5 2 Nordeste 9 Sur 0 911.3 1.5 47
2019-10-09 22:00:00 20.5 0 Calma 4 Norte 0 910.7 1.3 43
2019-10-09 21:00:00 22.8 0 Calma 6 Norte 0 910.4 1.4 36
2019-10-09 20:00:00 24.8 3 Noroeste 17 Oeste 0 909.8 0.7 31
2019-10-09 19:00:00 27.6 7 Noroeste 18 Noroeste 0 909.4 0.2 28
2019-10-09 18:00:00 29.3 4 Noroeste 20 Oeste 0 909 -0.4 29
2019-10-09 17:00:00 30 9 Oeste 22 Oeste 0 909.1 -0.8 27
2019-10-09 16:00:00 29.8 7 Noroeste 18 Noroeste 0 909.2 -1 30
2019-10-09 15:00:00 29.7 6 Sudoeste 14 Sur 0 909.4 -1.1 29
2019-10-09 14:00:00 28.2 4 Noroeste 16 Oeste 0 909.9 -1.1 28
2019-10-09 13:00:00 26.4 4 Sudeste 14 Sur 0 910.2 -0.7 36
2019-10-09 12:00:00 23.2 7 Sudeste 13 Sudeste 0 910.5 0.1 50
2019-10-09 11:00:00 20.3 3 Sur 16 Norte 0 911 0.7 56
2019-10-09 10:00:00 15.6 3 Norte 8 Norte 0 910.9 0.9 73
2019-10-09 09:00:00 12.3 2 Sudeste 7 Nordeste 0 910.4 0.3 81
2019-10-09 08:00:00 12.2 0 Calma 7 Nordeste 0 910.3 0.2 81
2019-10-09 07:00:00 12.6 0 Calma 4 Noroeste 0 910 -0.5 78
2019-10-09 06:00:00 13.2 0 Calma 3 Oeste 0 910.1 -0.7 78
2019-10-09 05:00:00 13.6 0 Calma 3 Sudeste 0 910.1 -0.9 74
2019-10-09 04:00:00 14.1 0 Calma 4 Norte 0 910.5 -0.7 72
2019-10-09 03:00:00 15 0 Calma 5 Norte 0 910.8 -0.5 67
2019-10-09 02:00:00 15.7 0 Calma 4 Nordeste 0 911 -0.2 64
2019-10-09 01:00:00 16.6 4 Norte 7 Norte 0 911.2 0.2 60
2019-10-09 00:00:00 17.8 0 Calma 4 Norte 0 911.3 0.5 55
2019-10-08 23:00:00 19.2 0 Calma 3 Sudoeste 0 911.2 0.7 48
2019-10-08 22:00:00 20.9 0 Calma 6 Este 0 911 0.8 43
2019-10-08 21:00:00 23.1 3 Norte 6 Norte 0 910.8 0.5 37
2019-10-08 20:00:00 25.2 3 Oeste 15 Oeste 0 910.5 0 32
2019-10-08 19:00:00 28 7 Oeste 21 Noroeste 0 910.2 -0.6 29
2019-10-08 18:00:00 29.3 9 Oeste 17 Oeste 0 910.3 -1 27
2019-10-08 17:00:00 29.9 6 Sudoeste 15 Sudoeste 0 910.5 -1.5 28
2019-10-08 16:00:00 29.2 5 Sur 11 Oeste 0 910.8 -1.9 28
2019-10-08 15:00:00 27.9 5 Noroeste 12 Sudoeste 0 911.3 -1.9 32
2019-10-08 14:00:00 26.8 4 Este 13 Este 0 912 -1.2 34
2019-10-08 13:00:00 25.2 5 Sur 15 Este 0 912.7 -0.7 38
2019-10-08 12:00:00 22.8 6 Sur 12 Sur 0 913.2 0.1 43
2019-10-08 11:00:00 19.4 3 Sudoeste 8 Sudoeste 0 913.2 0.7 51
2019-10-08 10:00:00 14.8 3 Oeste 9 Oeste 0 913.4 1.5 64
2019-10-08 09:00:00 11.7 0 Calma 5 Oeste 0 913.1 1.1 74
2019-10-08 08:00:00 12.1 0 Calma 8 Noroeste 0 912.5 0.4 70
2019-10-08 07:00:00 12.3 3 Sudeste 9 Sudoeste 0 911.9 -0.2 69
2019-10-08 06:00:00 13.2 2 Oeste 10 Sur 0 912 -0.6 66
2019-10-08 05:00:00 13.3 3 Sudeste 14 Noroeste 0 912.1 -0.3 65
2019-10-08 04:00:00 13.9 3 Noroeste 8 Este 0 912.1 -0.4 63
2019-10-08 03:00:00 14.5 4 Sudoeste 9 Sudoeste 0 912.6 -0.1 62
2019-10-08 02:00:00 15.5 2 Oeste 9 Nordeste 0 912.4 -0.3 57
2019-10-08 01:00:00 17.1 3 Este 15 Nordeste 0 912.5 0.2 52
2019-10-08 00:00:00 18 3 Sudoeste 10 Nordeste 0 912.7 1.5 48
2019-10-07 23:00:00 19.4 2 Noroeste 9 Sudeste 0 912.7 1.3 44
2019-10-07 22:00:00 20.7 3 Sudeste 17 Norte 0 912.3 1.4 40
2019-10-07 21:00:00 21.9 6 Norte 15 Nordeste 0 911.2 0.7 37
2019-10-07 20:00:00 23.9 4 Norte 23 Norte 0 911.4 1 33
2019-10-07 19:00:00 27 5 Noroeste 21 Norte 0 910.9 0.2 30
2019-10-07 18:00:00 28.4 8 Noroeste 24 Noroeste 0 910.5 -0.4 29
2019-10-07 17:00:00 28.5 7 Norte 26 Noroeste 0 910.4 -1.2 28
2019-10-07 16:00:00 27.7 6 Norte 24 Norte 0 910.7 -1 27
2019-10-07 15:00:00 26.7 7 Norte 24 Noroeste 0 910.9 -0.8 27
2019-10-07 14:00:00 24.4 10 Noroeste 28 Noroeste 0 911.6 -0.3 27
2019-10-07 13:00:00 24.2 6 Norte 27 Norte 0 911.7 0.1 28
2019-10-07 12:00:00 22.4 10 Norte 35 Norte 0 911.7 0.4 28
2019-10-07 11:00:00 19.3 11 Norte 35 Norte 0 911.9 0.9 34
2019-10-07 10:00:00 16.4 15 Norte 31 Nordeste 0 911.6 0.8 48
2019-10-07 09:00:00 13.8 7 Norte 23 Norte 0 911.3 0.5 63
2019-10-07 08:00:00 13.2 8 Norte 25 Norte 0 911 0.1 64
2019-10-07 07:00:00 13.2 7 Norte 28 Nordeste 0 910.8 -0.7 62
2019-10-07 06:00:00 13 10 Norte 21 Norte 0 910.8 -1.3 61
2019-10-07 05:00:00 12.6 10 Nordeste 18 Nordeste 0 910.9 -1.1 60
2019-10-07 04:00:00 13.4 4 Norte 13 Norte 0 911.5 -0.9 58
2019-10-07 03:00:00 13.7 3 Norte 13 Noroeste 0 912.1 -0.4 55
2019-10-07 02:00:00 14.2 4 Noroeste 12 Norte 0 912 -0.1 54
2019-10-07 01:00:00 15.3 6 Noroeste 14 Nordeste 0 912.4 0.5 50
2019-10-07 00:00:00 15.8 5 Norte 11 Noroeste 0 912.5 0.7 48
2019-10-06 23:00:00 17.2 0 Calma 8 Noroeste 0 912.1 0.7 44
2019-10-06 22:00:00 18.9 0 Calma 5 Norte 0 911.9 0.8 40
2019-10-06 21:00:00 20.6 2 Noroeste 12 Norte 0 911.8 0.9 36
2019-10-06 20:00:00 22.6 3 Norte 16 Noroeste 0 911.4 0.2 30
2019-10-06 19:00:00 25.1 6 Noroeste 21 Noroeste 0 911.1 -0.4 24
2019-10-06 18:00:00 26.8 6 Noroeste 24 Norte 0 910.9 -0.7 21
2019-10-06 17:00:00 27.6 8 Noroeste 20 Norte 0 911.2 -1 19
2019-10-06 16:00:00 27.4 6 Noroeste 19 Norte 0 911.5 -1 22
2019-10-06 15:00:00 25.8 9 Noroeste 20 Noroeste 0 911.6 -1.2 27
2019-10-06 14:00:00 25.6 11 Noroeste 24 Noroeste 0 912.2 -0.7 26
2019-10-06 13:00:00 24.5 3 Noroeste 14 Noroeste 0 912.5 0.1 34
2019-10-06 12:00:00 21.5 4 Oeste 8 Noroeste 0 912.8 0.8 44
2019-10-06 11:00:00 17 3 Oeste 8 Norte 0 912.9 1.8 54
2019-10-06 10:00:00 13 0 Calma 5 Sudeste 0 912.4 1.6 66
2019-10-06 09:00:00 10.1 3 Sur 15 Norte 0 912 1 73
2019-10-06 08:00:00 10.3 5 Norte 18 Noroeste 0 911.1 0.4 75
2019-10-06 07:00:00 10.1 0 Calma 5 Sur 0 910.8 -0.2 71
2019-10-06 06:00:00 10.5 3 Sudoeste 4 Sudoeste 0 911 -0.4 69
2019-10-06 05:00:00 10.9 2 Sur 5 Nordeste 0 910.7 -0.3 68
2019-10-06 04:00:00 11.5 0 Calma 4 Sudoeste 0 911 -0.1 64
2019-10-06 03:00:00 12.3 0 Calma 6 Norte 0 911.4 0.3 62
2019-10-06 02:00:00 13.2 0 Calma 4 Sudoeste 0 911 0.1 61
2019-10-06 01:00:00 14.4 0 Calma 6 Norte 0 911.1 0.4 57
2019-10-06 00:00:00 15.7 0 Calma 7 Norte 0 911.1 0.9 53
2019-10-05 23:00:00 17.3 0 Calma 10 Norte 0 910.9 1.1 48
2019-10-05 22:00:00 19.5 3 Norte 8 Noroeste 0 910.7 1.5 42
2019-10-05 21:00:00 21.4 3 Norte 11 Noroeste 0 910.2 1.3 40
2019-10-05 20:00:00 23.6 5 Oeste 14 Norte 0 909.8 1.1 35
2019-10-05 19:00:00 26.7 7 Noroeste 19 Noroeste 0 909.2 0.3 27
2019-10-05 18:00:00 27.7 6 Noroeste 21 Noroeste 0 908.9 -0.3 28
2019-10-05 17:00:00 28 9 Sudoeste 18 Oeste 0 908.7 -1 28
2019-10-05 16:00:00 27.6 8 Noroeste 18 Noroeste 0 908.9 -1.1 30
2019-10-05 15:00:00 27.2 7 Sudoeste 16 Sudoeste 0 909.2 -1.1 32
2019-10-05 14:00:00 25.8 4 Sur 15 Oeste 0 909.7 -0.7 33
2019-10-05 13:00:00 24.4 5 Oeste 13 Oeste 0 910 -0.2 38
2019-10-05 12:00:00 21.6 3 Sur 7 Sudoeste 0 910.3 0.5 40
2019-10-05 11:00:00 17.2 3 Sur 5 Sudoeste 0 910.4 1.1 47
2019-10-05 10:00:00 12.6 2 Sur 4 Sudoeste 0 910.2 1.1 61
2019-10-05 09:00:00 8.9 2 Sudoeste 5 Sudoeste 0 909.8 0.6 70
2019-10-05 08:00:00 9.2 2 Este 3 Norte 0 909.3 0 70
2019-10-05 07:00:00 9.7 0 Calma 5 Oeste 0 909.1 -0.4 67
2019-10-05 06:00:00 10.4 0 Calma 6 Norte 0 909.2 -0.5 64
2019-10-05 05:00:00 11 0 Calma 3 Sur 0 909.3 -0.4 63
2019-10-05 04:00:00 11.9 3 Norte 7 Norte 0 909.5 -0.5 60
2019-10-05 03:00:00 12.5 2 Sudoeste 6 Sur 0 909.7 -0.3 57
2019-10-05 02:00:00 13.4 0 Calma 6 Norte 0 909.7 -0.1 53
2019-10-05 01:00:00 14.6 2 Norte 5 Norte 0 910 0.3 51
2019-10-05 00:00:00 16 0 Calma 6 Norte 0 910 0.4 47
2019-10-04 23:00:00 17.8 3 Sudoeste 13 Nordeste 0 909.8 0.5 42
2019-10-04 22:00:00 19.9 6 Nordeste 15 Nordeste 0 909.7 0.9 36
2019-10-04 21:00:00 21.5 9 Nordeste 17 Nordeste 0 909.6 0.7 33
2019-10-04 20:00:00 23.8 3 Norte 14 Norte 0 909.3 0.3 29
2019-10-04 19:00:00 26.3 8 Noroeste 18 Norte 0 908.8 -0.4 25
2019-10-04 18:00:00 26.3 8 Noroeste 21 Oeste 0 908.9 -0.9 25
2019-10-04 17:00:00 27.7 10 Oeste 21 Oeste 0 909 -1.6 22
2019-10-04 16:00:00 29.1 5 Oeste 14 Sudoeste 0 909.2 -1.9 22
2019-10-04 15:00:00 27.8 7 Oeste 14 Sudoeste 0 909.8 -2 22
2019-10-04 14:00:00 25.8 5 Noroeste 10 Oeste 0 910.6 -1.4 25
2019-10-04 13:00:00 23.8 4 Sudoeste 9 Sudoeste 0 911.1 -0.6 29
2019-10-04 12:00:00 20.9 2 Sur 6 Sudoeste 0 911.8 0.3 35
2019-10-04 11:00:00 16.3 2 Oeste 6 Oeste 0 912 0.8 47
2019-10-04 10:00:00 11.9 0 Calma 5 Oeste 0 911.7 0.4 60
2019-10-04 09:00:00 8.3 3 Oeste 4 Oeste 0 911.5 0.2 67
2019-10-04 08:00:00 8.3 0 Calma 4 Sur 0 911.2 -0.2 68
2019-10-04 07:00:00 9.1 3 Nordeste 5 Norte 0 911.3 -0.2 65
2019-10-04 06:00:00 9 3 Sudeste 6 Nordeste 0 911.3 -0.6 64
2019-10-04 05:00:00 9.7 0 Calma 3 Sur 0 911.4 -0.4 61
2019-10-04 04:00:00 10.6 0 Calma 6 Norte 0 911.5 -0.4 58
2019-10-04 03:00:00 11 0 Calma 10 Nordeste 0 911.9 0 55
2019-10-04 02:00:00 12.1 9 Norte 17 Norte 0 911.8 0.2 53
2019-10-04 01:00:00 13.1 9 Norte 15 Norte 0 911.9 0.5 50
2019-10-04 00:00:00 14.3 3 Oeste 8 Norte 0 911.9 0.8 46
2019-10-03 23:00:00 15.7 3 Noroeste 12 Noroeste 0 911.6 0.8 42
2019-10-03 22:00:00 17.4 3 Noroeste 9 Norte 0 911.4 1 38
2019-10-03 21:00:00 19.3 2 Noroeste 16 Noroeste 0 911.1 0.9 33
2019-10-03 20:00:00 21 6 Noroeste 22 Oeste 0 910.8 0.6 26
2019-10-03 19:00:00 23.6 9 Noroeste 26 Noroeste 0 910.4 0.1 21
2019-10-03 18:00:00 24.8 10 Noroeste 25 Noroeste 0 910.2 -0.2 22
2019-10-03 17:00:00 25.3 11 Oeste 22 Oeste 0 910.2 -0.8 22
2019-10-03 16:00:00 23.9 14 Noroeste 26 Sudoeste 0 910.3 -1.1 21
2019-10-03 15:00:00 23.5 13 Noroeste 26 Noroeste 0 910.4 -1.4 27
2019-10-03 14:00:00 22 13 Noroeste 28 Oeste 0 911 -0.7 32
2019-10-03 13:00:00 20.9 9 Noroeste 27 Oeste 0 911.4 0 35
2019-10-03 12:00:00 19.7 8 Norte 28 Norte 0 911.8 0.7 40
2019-10-03 11:00:00 16.2 10 Norte 28 Nordeste 0 911.7 0.8 50
2019-10-03 10:00:00 11.6 6 Norte 17 Noroeste 0 911.4 0.7 65
2019-10-03 09:00:00 8.3 5 Noroeste 14 Noroeste 0 911.1 0.3 77
2019-10-03 08:00:00 7.8 5 Noroeste 13 Noroeste 0 910.9 0 79
2019-10-03 07:00:00 8 7 Norte 13 Nordeste 0 910.7 -0.1 77
2019-10-03 06:00:00 8.3 3 Norte 8 Nordeste 0 910.8 -0.4 75
2019-10-03 05:00:00 9.1 3 Norte 10 Noroeste 0 910.9 -0.7 72
2019-10-03 04:00:00 9.7 4 Norte 12 Norte 0 910.8 -1.3 69
2019-10-03 03:00:00 10.2 5 Noroeste 12 Norte 0 911.2 -0.5 66
2019-10-03 02:00:00 11.5 3 Noroeste 8 Noroeste 0 911.6 0 60
2019-10-03 01:00:00 12.8 2 Norte 19 Nordeste 0 912.1 1 54
2019-10-03 00:00:00 13.8 6 Norte 16 Nordeste 0 911.7 0.9 50
2019-10-02 23:00:00 14.8 4 Este 15 Nordeste 0 911.6 1.2 48
2019-10-02 22:00:00 16.3 7 Norte 15 Norte 0 911.1 1.4 44
2019-10-02 21:00:00 17.9 5 Norte 12 Noroeste 0 910.8 1.5 41
2019-10-02 20:00:00 19.7 5 Norte 22 Norte 0 910.4 1.2 37
2019-10-02 19:00:00 22.1 6 Noroeste 20 Noroeste 0 909.7 0.6 31
2019-10-02 18:00:00 23.3 5 Norte 28 Norte 0 909.3 0.2 30
2019-10-02 17:00:00 23.7 6 Norte 24 Nordeste 0 909.2 -0.4 28
2019-10-02 16:00:00 23.4 6 Norte 27 Norte 0 909.1 -0.7 28
2019-10-02 15:00:00 23 8 Norte 26 Norte 0 909.1 -0.8 28
2019-10-02 14:00:00 21.6 9 Norte 27 Noroeste 0 909.6 -0.3 28
2019-10-02 13:00:00 20.5 10 Norte 24 Nordeste 0 909.8 0.2 31
2019-10-02 12:00:00 18.9 8 Norte 28 Noroeste 0 909.9 0.7 43
2019-10-02 11:00:00 17 6 Norte 17 Norte 0 909.9 1.4 51
2019-10-02 10:00:00 13.4 3 Noroeste 9 Norte 0 909.6 1.3 63
2019-10-02 09:00:00 10.4 3 Noroeste 12 Nordeste 0 909.2 1 74
2019-10-02 08:00:00 10.4 4 Norte 12 Norte 0 908.5 0.3 75
2019-10-02 07:00:00 10.6 3 Noroeste 15 Norte 0 908.3 0.2 74
2019-10-02 06:00:00 11 5 Norte 12 Norte 0 908.2 -0.3 73
2019-10-02 05:00:00 11.5 3 Norte 9 Norte 0 908.2 -0.3 71
2019-10-02 04:00:00 12.5 4 Norte 11 Norte 0 908.1 -0.5 67
2019-10-02 03:00:00 13.5 3 Norte 12 Noroeste 0 908.5 0.1 63
2019-10-02 02:00:00 14.7 5 Norte 13 Norte 0 908.5 0.5 58
2019-10-02 01:00:00 15.8 2 Norte 12 Noroeste 0 908.6 0.8 54
2019-10-02 00:00:00 17.3 3 Noroeste 10 Noroeste 0 908.4 1.1 50
2019-10-01 23:00:00 18.7 4 Norte 10 Norte 0 908 1.2 44
2019-10-01 22:00:00 19.6 4 Noroeste 11 Noroeste 0 907.8 1.2 40
2019-10-01 21:00:00 20.8 4 Noroeste 16 Noroeste 0 907.3 0.9 32
2019-10-01 20:00:00 22.9 5 Noroeste 24 Noroeste 0 906.8 0.4 27
2019-10-01 19:00:00 25.3 10 Noroeste 26 Noroeste 0 906.6 0 24
2019-10-01 18:00:00 26.5 12 Noroeste 27 Noroeste 0 906.4 -0.3 21
2019-10-01 17:00:00 26.8 12 Noroeste 28 Oeste 0 906.4 -0.8 23
2019-10-01 16:00:00 26.9 12 Noroeste 28 Noroeste 0 906.6 -1.1 22
2019-10-01 15:00:00 27.7 11 Noroeste 27 Oeste 0 906.7 -1.4 23
2019-10-01 14:00:00 27.4 9 Noroeste 23 Noroeste 0 907.2 -1.4 24
2019-10-01 13:00:00 25.7 4 Sudoeste 8 Sudoeste 0 907.7 -0.7 30
2019-10-01 12:00:00 22.6 3 Sur 8 Sur 0 908.1 0.4 34
2019-10-01 11:00:00 18.2 3 Sur 8 Norte 0 908.6 0.9 46
2019-10-01 10:00:00 13.1 0 Calma 6 Sudoeste 0 908.4 0.8 62
2019-10-01 09:00:00 11.8 0 Calma 4 Sur 0 907.7 -0.1 64
2019-10-01 08:00:00 11 0 Calma 4 Sudoeste 0 907.7 -0.6 66
2019-10-01 07:00:00 11.5 0 Calma 4 Oeste 0 907.6 -1 63
2019-10-01 06:00:00 11.7 2 Oeste 5 Oeste 0 907.8 -1.7 61
2019-10-01 05:00:00 12.4 0 Calma 4 Norte 0 908.3 -1.3 59
2019-10-01 04:00:00 13.3 3 Norte 6 Oeste 0 908.6 -1.1 55
2019-10-01 03:00:00 13.9 3 Nordeste 7 Norte 0 909.5 -0.4 54
2019-10-01 02:00:00 14.6 2 Noroeste 4 Norte 0 909.6 -0.3 51
2019-10-01 01:00:00 15.6 0 Calma 5 Sudoeste 0 909.7 -0.2 48
2019-10-01 00:00:00 16.8 2 Norte 5 Norte 0 909.9 0.2 44
2019-09-30 23:00:00 18.2 2 Sudoeste 6 Norte 0 909.9 0.3 42
2019-09-30 22:00:00 20.6 0 Calma 9 Norte 0 909.9 0.5 35
2019-09-30 21:00:00 23.1 4 Norte 11 Oeste 0 909.7 0.2 29
2019-09-30 20:00:00 25.3 5 Oeste 14 Oeste 0 909.6 -0.2 25
2019-09-30 19:00:00 27.6 6 Oeste 17 Oeste 0 909.4 -0.8 21
2019-09-30 18:00:00 29.5 8 Oeste 24 Noroeste 0 909.5 -1.1 19
2019-09-30 17:00:00 29.9 8 Oeste 19 Oeste 0 909.8 -1.5 19
2019-09-30 16:00:00 29.9 6 Noroeste 22 Noroeste 0 910.2 -1.6 18
2019-09-30 15:00:00 29.5 6 Oeste 27 Oeste 0 910.6 -1.5 18
2019-09-30 14:00:00 28.1 4 Sudoeste 12 Oeste 0 911.3 -1 20
2019-09-30 13:00:00 27.2 4 Noroeste 12 Noroeste 0 911.8 -0.3 23
2019-09-30 12:00:00 23.8 3 Sudoeste 6 Sudoeste 0 912.1 0.3 33
2019-09-30 11:00:00 19.1 3 Sudoeste 5 Oeste 0 912.3 0.8 40
2019-09-30 10:00:00 14.6 2 Sudoeste 4 Sudoeste 0 912.1 0.8 56
2019-09-30 09:00:00 10.3 2 Sudoeste 4 Noroeste 0 911.8 0.4 67
2019-09-30 08:00:00 10.3 0 Calma 4 Sudoeste 0 911.5 0 66
2019-09-30 07:00:00 10.6 3 Sudoeste 4 Oeste 0 911.3 -0.5 65
2019-09-30 06:00:00 11 0 Calma 3 Sudoeste 0 911.4 -0.8 64
2019-09-30 05:00:00 11.9 3 Norte 8 Norte 0 911.5 -0.7 60
2019-09-30 04:00:00 12.6 2 Norte 5 Norte 0 911.8 -0.4 57
2019-09-30 03:00:00 13.2 0 Calma 8 Norte 0 912.2 -0.1 55
2019-09-30 02:00:00 14.1 0 Calma 7 Norte 0 912.2 0 53
2019-09-30 01:00:00 15.3 2 Norte 5 Norte 0 912.2 0.1 47
2019-09-30 00:00:00 16.6 3 Noroeste 7 Nordeste 0 912.3 0.8 43
2019-09-29 23:00:00 18.4 2 Noroeste 8 Norte 0 912.2 0.9 40
2019-09-29 22:00:00 20.5 5 Norte 10 Norte 0 912.1 1.1 34
2019-09-29 21:00:00 22.9 3 Norte 8 Noroeste 0 911.5 0.6 28
2019-09-29 20:00:00 25.1 5 Noroeste 22 Noroeste 0 911.3 0.1 25
2019-09-29 19:00:00 28.1 9 Oeste 22 Oeste 0 911 -0.5 22
2019-09-29 18:00:00 29.3 8 Oeste 22 Oeste 0 910.9 -1 21
2019-09-29 17:00:00 29.6 9 Oeste 23 Noroeste 0 911.2 -1.1 23
2019-09-29 16:00:00 29.7 5 Oeste 21 Oeste 0 911.5 -1.1 20
2019-09-29 15:00:00 28.8 12 Oeste 23 Sudoeste 0 911.9 -1 24
2019-09-29 14:00:00 28 6 Oeste 21 Oeste 0 912.3 -0.6 29
2019-09-29 13:00:00 26.4 4 Oeste 10 Oeste 0 912.6 -0.1 39
2019-09-29 12:00:00 23.1 3 Sudoeste 6 Sudoeste 0 912.9 0.5 52
2019-09-29 11:00:00 19.2 3 Sudoeste 6 Sudoeste 0 912.9 0.7 68
2019-09-29 10:00:00 15.6 0 Calma 4 Oeste 0 912.7 0.7 78
2019-09-29 09:00:00 11.8 2 Sur 3 Oeste 0 912.4 0.3 89
2019-09-29 08:00:00 11.8 0 Calma 3 Sudoeste 0 912.2 0 87
2019-09-29 07:00:00 12.5 0 Calma 3 Noroeste 0 912 -0.6 84
2019-09-29 06:00:00 13.4 0 Calma 5 Norte 0 912.1 -0.8 87
2019-09-29 05:00:00 13.9 0 Calma 5 Norte 0 912.2 -0.8 84
2019-09-29 04:00:00 14.5 0 Calma 4 Noroeste 0 912.6 -0.7 81
2019-09-29 03:00:00 15.2 0 Calma 4 Norte 0 912.9 -0.5 76
2019-09-29 02:00:00 15.8 0 Calma 4 Norte 0 913 -0.3 71
2019-09-29 01:00:00 16.3 0 Calma 3 Noroeste 0 913.3 0.3 62
2019-09-29 00:00:00 16.8 2 Noroeste 6 Noroeste 0 913.4 0.7 52
2019-09-28 23:00:00 18.1 2 Nordeste 7 Sudeste 0 913.3 0.8 43
2019-09-28 22:00:00 20 2 Oeste 4 Sudoeste 0 913 0.5 37
2019-09-28 21:00:00 22.4 0 Calma 4 Sudeste 0 912.7 0.4 30
2019-09-28 20:00:00 24.8 4 Sudoeste 16 Sudoeste 0 912.5 0.2 24
2019-09-28 19:00:00 27.6 10 Sudoeste 21 Sudoeste 0 912.5 -0.1 19
2019-09-28 18:00:00 29 9 Sudoeste 24 Oeste 0 912.3 -0.7 20
2019-09-28 17:00:00 29.4 5 Oeste 20 Sudoeste 0 912.3 -1.3 20
2019-09-28 16:00:00 28.9 5 Sur 21 Sur 0 912.6 -1.3 19
2019-09-28 15:00:00 28.4 7 Sudoeste 20 Sudoeste 0 913 -1.2 23
2019-09-28 14:00:00 27.5 9 Sudoeste 19 Oeste 0 913.6 -0.8 27
2019-09-28 13:00:00 26.5 8 Sur 17 Sudeste 0 913.9 -0.1 30
2019-09-28 12:00:00 23.9 7 Sur 13 Sudoeste 0 914.2 0.7 36
2019-09-28 11:00:00 18.9 3 Sudoeste 5 Oeste 0 914.4 1.5 49
2019-09-28 10:00:00 14.9 0 Calma 3 Norte 0 914 1.1 62
2019-09-28 09:00:00 10.7 0 Calma 4 Noroeste 0 913.5 0.5 75
2019-09-28 08:00:00 10.6 3 Sudeste 4 Sur 0 912.9 -0.2 75
2019-09-28 07:00:00 11.1 0 Calma 3 Sur 0 912.9 0.1 73
2019-09-28 06:00:00 11.8 0 Calma 8 Norte 0 913 -0.1 70
2019-09-28 05:00:00 12.3 0 Calma 5 Nordeste 0 913.1 -0.1 68
2019-09-28 04:00:00 12.8 0 Calma 8 Norte 0 912.8 -0.3 66
2019-09-28 03:00:00 13.4 2 Sudoeste 6 Norte 0 913.1 0 63
2019-09-28 02:00:00 14.2 5 Norte 7 Norte 0 913.2 0.2 59
2019-09-28 01:00:00 15.2 2 Norte 8 Norte 0 913.1 0.5 54
2019-09-28 00:00:00 16.4 0 Calma 10 Norte 0 913.1 0.8 51
2019-09-27 23:00:00 18.2 0 Calma 4 Noroeste 0 913 1.2 46
2019-09-27 22:00:00 20.2 3 Norte 5 Norte 0 912.6 1 40
2019-09-27 21:00:00 22.1 3 Noroeste -- -- -- 912.3 0.9 34
2019-09-27 20:00:00 24.3 5 Noroeste 22 Noroeste 0 911.8 0.6 31
2019-09-27 19:00:00 26.9 8 Noroeste 21 Noroeste 0 911.6 0.3 27
2019-09-27 18:00:00 28.3 6 Noroeste 24 Noroeste 0 911.4 -0.4 26
2019-09-27 17:00:00 28.5 10 Oeste 25 Norte 0 911.2 -1 25
2019-09-27 16:00:00 28.6 10 Sudoeste 22 Oeste 0 911.3 -1.2 26
2019-09-27 15:00:00 28 10 Oeste 21 Oeste 0 911.8 -1.1 29
2019-09-27 14:00:00 27.3 8 Oeste 18 Sudoeste 0 912.2 -0.7 32
2019-09-27 13:00:00 25.9 4 Sudoeste 10 Noroeste 0 912.5 -0.5 35
2019-09-27 12:00:00 23.7 4 Sudoeste 7 Oeste 0 912.9 0.2 41
2019-09-27 11:00:00 19.8 3 Sudoeste 5 Sur 0 912.9 0.3 54
2019-09-27 10:00:00 15.8 0 Calma 4 Sudoeste 0 913 0.6 68
2019-09-27 09:00:00 12 0 Calma 4 Norte 0 912.7 0.3 81
2019-09-27 08:00:00 11.8 3 Sudoeste 6 Norte 0 912.6 0.2 81
2019-09-27 07:00:00 12.1 0 Calma 5 Norte 0 912.4 0 80
2019-09-27 06:00:00 12.7 0 Calma 5 Sudoeste 0 912.4 -0.3 77
2019-09-27 05:00:00 13.2 4 Norte 8 Norte 0 912.4 -0.4 74
2019-09-27 04:00:00 13.7 3 Norte 5 Norte 0 912.4 -0.7 73
2019-09-27 03:00:00 14.3 0 Calma 4 Nordeste 0 912.7 -0.4 70
2019-09-27 02:00:00 15.1 0 Calma 6 Norte 0 912.8 0 66
2019-09-27 01:00:00 16 3 Norte 5 Norte 0 913.1 0.3 63
2019-09-27 00:00:00 17.2 2 Norte 6 Norte 0 913.1 0.9 58
2019-09-26 23:00:00 18.7 3 Norte 7 Norte 0 912.8 0.9 53
2019-09-26 22:00:00 20.6 0 Calma 5 Noroeste 0 912.8 1.1 48
2019-09-26 21:00:00 22.6 2 Norte 8 Oeste 0 912.2 0.6 41
2019-09-26 20:00:00 24.2 5 Oeste 16 Sudoeste 0 911.9 0.2 36
2019-09-26 19:00:00 26.9 7 Sudoeste 16 Sudoeste 0 911.7 -0.1 30
2019-09-26 18:00:00 27.9 6 Oeste 15 Sudoeste 0 911.6 -0.5 28
2019-09-26 17:00:00 27.7 8 Sur 17 Sudoeste 0 911.7 -0.9 28
2019-09-26 16:00:00 27.3 7 Oeste 17 Oeste 0 911.8 -1.3 31
2019-09-26 15:00:00 26.5 8 Oeste 15 Sudoeste 0 912.1 -1.4 33
2019-09-26 14:00:00 25.3 3 Sudeste 12 Sur 0 912.6 -1 34
2019-09-26 13:00:00 23.9 4 Sudoeste 11 Sudeste 0 913.1 -0.1 36
2019-09-26 12:00:00 21.8 5 Sudoeste 11 Sudoeste 0 913.5 0.9 44
2019-09-26 11:00:00 18.8 4 Sur 7 Sudoeste 0 913.6 1.3 56
2019-09-26 10:00:00 14.9 2 Noroeste 4 Noroeste 0 913.2 1.3 68
2019-09-26 09:00:00 11.1 0 Calma 4 Norte 0 912.6 0.9 80
2019-09-26 08:00:00 11 0 Calma 4 Sur 0 912.3 0.7 82
2019-09-26 07:00:00 11.2 3 Este 6 Norte 0 911.9 0.4 81
2019-09-26 06:00:00 11.6 3 Sudoeste 6 Oeste 0 911.7 -0.1 80
2019-09-26 05:00:00 12.1 0 Calma 5 Sudoeste 0 911.6 -0.2 79
2019-09-26 04:00:00 12.6 3 Sudoeste 5 Norte 0 911.5 -0.5 77
2019-09-26 03:00:00 13.2 0 Calma 5 Norte 0 911.8 0 74
2019-09-26 02:00:00 13.9 0 Calma 5 Norte 0 911.8 0.3 72
2019-09-26 01:00:00 14.8 0 Calma 8 Norte 0 912 0.9 68
2019-09-26 00:00:00 15.7 2 Oeste 8 Norte 0 911.8 1.1 65
2019-09-25 23:00:00 16.7 2 Nordeste 9 Norte 0 911.5 1.1 60
2019-09-25 22:00:00 18.1 2 Norte 7 Norte 0 911.1 1 55
2019-09-25 21:00:00 19.8 3 Noroeste 10 Noroeste 0 910.7 0.9 48
2019-09-25 20:00:00 21.2 3 Noroeste 14 Norte 0 910.4 0.8 43
2019-09-25 19:00:00 22.9 7 Noroeste 21 Noroeste 0 910.1 0.3 39
2019-09-25 18:00:00 23.8 9 Noroeste 24 Noroeste 0 909.8 -0.2 38
2019-09-25 17:00:00 24.3 8 Noroeste 21 Noroeste 0 909.6 -0.8 36
2019-09-25 16:00:00 24.5 6 Noroeste 23 Norte 0 909.8 -1 37
2019-09-25 15:00:00 23.7 7 Noroeste 23 Noroeste 0 910 -1 43
2019-09-25 14:00:00 22.5 5 Noroeste 17 Sudoeste 0 910.4 -0.5 47
2019-09-25 13:00:00 21.6 6 Oeste 17 Noroeste 0 910.8 0.2 49
2019-09-25 12:00:00 19.6 6 Oeste 12 Oeste 0 911 1 62
2019-09-25 11:00:00 18.6 5 Noroeste 11 Noroeste 0 910.9 1.2 70
2019-09-25 10:00:00 16.2 4 Oeste 7 Oeste 0 910.6 1.1 84
2019-09-25 09:00:00 13.9 2 Sudoeste 4 Sudoeste 0 910 0.5 92
2019-09-25 08:00:00 14.1 0 Calma 5 Norte 0 909.7 0.1 91
2019-09-25 07:00:00 14.8 0 Calma 5 Noroeste 0 909.5 -0.3 90
2019-09-25 06:00:00 15.7 4 Noroeste 15 Noroeste 0 909.5 -0.4 87
2019-09-25 05:00:00 16.2 3 Noroeste 13 Norte 0 909.6 -0.8 87
2019-09-25 04:00:00 16.9 4 Noroeste 12 Norte 0 909.8 -0.8 85
2019-09-25 03:00:00 17.2 4 Oeste 13 Oeste 0 909.9 -0.8 82
2019-09-25 02:00:00 17.3 3 Noroeste 10 Norte 0 910.4 -0.5 79
2019-09-25 01:00:00 17.9 3 Noroeste 10 Noroeste 0 910.6 -0.3 75
2019-09-25 00:00:00 18.8 3 Noroeste 9 Norte 0 910.7 0.1 68
2019-09-24 23:00:00 19.2 2 Norte 7 Norte 0 910.9 0.4 58
2019-09-24 22:00:00 20.3 2 Norte 6 Norte 0 910.9 0.6 50
2019-09-24 21:00:00 21.9 2 Norte 11 Noroeste 0 910.6 0.2 42
2019-09-24 20:00:00 23.1 6 Oeste 18 Oeste 0 910.5 0 38
2019-09-24 19:00:00 25.3 11 Oeste 21 Oeste 0 910.3 -0.7 31
2019-09-24 18:00:00 26.8 10 Noroeste 22 Noroeste 0 910.4 -1 30
2019-09-24 17:00:00 26.8 8 Noroeste 23 Oeste 0 910.5 -1.6 32
2019-09-24 16:00:00 26.7 9 Noroeste 23 Sudoeste 0 911 -1.8 30
2019-09-24 15:00:00 25.7 11 Sudoeste 21 Sudoeste 0 911.4 -1.9 34
2019-09-24 14:00:00 24.5 5 Noroeste 15 Oeste 0 912.1 -1.3 35
2019-09-24 13:00:00 22.8 5 Noroeste 13 Oeste 0 912.8 0 43
2019-09-24 12:00:00 20.8 5 Oeste 10 Noroeste 0 913.3 0.7 47
2019-09-24 11:00:00 17.2 3 Sudoeste 6 Sur 0 913.4 1 66
2019-09-24 10:00:00 13.5 3 Sur 6 Sur 0 912.8 0.6 78
2019-09-24 09:00:00 10 0 Calma 5 Sur 0 912.6 0.3 88
2019-09-24 08:00:00 10 0 Calma 4 Nordeste 0 912.4 0 87
2019-09-24 07:00:00 10.5 0 Calma 5 Norte 0 912.2 -0.4 86
2019-09-24 06:00:00 10.8 0 Calma 6 Norte 0 912.3 -0.8 85
2019-09-24 05:00:00 11.4 3 Sudoeste 5 Oeste 0 912.4 -0.9 84
2019-09-24 04:00:00 12.1 3 Sur 8 Norte 0 912.6 -0.9 82
2019-09-24 03:00:00 12.8 3 Norte 6 Norte 0 913.1 -0.7 77
2019-09-24 02:00:00 13.6 3 Norte 6 Noroeste 0 913.3 -0.7 75
2019-09-24 01:00:00 14.5 0 Calma 7 Norte 0 913.5 -0.2 73
2019-09-24 00:00:00 15.4 2 Norte 8 Norte 0 913.8 0.4 68
2019-09-23 23:00:00 16.3 3 Norte 8 Noroeste 0 914 1.1 63
2019-09-23 22:00:00 17.6 4 Norte 7 Norte 0 913.7 1 57
2019-09-23 21:00:00 19.1 0 Calma 10 Noroeste 0 913.4 1.2 50
2019-09-23 20:00:00 20.6 5 Noroeste 15 Noroeste 0 912.9 0.7 45
2019-09-23 19:00:00 22.1 8 Oeste 17 Oeste 0 912.7 0.3 43
2019-09-23 18:00:00 22.9 8 Sudoeste 17 Oeste 0 912.2 -0.6 41
2019-09-23 17:00:00 23.6 9 Sudoeste 18 Sudoeste 0 912.2 -0.5 39
2019-09-23 16:00:00 23.5 5 Sudoeste 16 Noroeste 0 912.4 -0.6 40
2019-09-23 15:00:00 22.3 6 Oeste 15 Oeste 0 912.8 -0.7 39
2019-09-23 14:00:00 21.9 5 Oeste 18 Noroeste 0 912.7 -0.8 41
2019-09-23 13:00:00 20.5 5 Sur 11 Sudeste 0 913 -0.1 46
2019-09-23 12:00:00 18.6 3 Sudoeste 10 Sur 0 913.5 0.5 57
2019-09-23 11:00:00 15.8 3 Sudoeste 7 Sudoeste 0 913.5 1.2 65
2019-09-23 10:00:00 12.3 2 Oeste 5 Sudoeste 0 913.1 1 79
2019-09-23 09:00:00 8.7 2 Oeste 5 Sur 0 913 1.5 91
2019-09-23 08:00:00 8.6 0 Calma 5 Norte 0 912.3 1.2 90
2019-09-23 07:00:00 8.8 2 Sur 6 Norte 0 912.1 0.9 91
2019-09-23 06:00:00 9.2 3 Norte 7 Norte 0 911.5 0.2 88
2019-09-23 05:00:00 9.6 2 Nordeste 7 Norte 0 911.1 0 87
2019-09-23 04:00:00 10 0 Calma 6 Norte 0 911.2 0.3 85
2019-09-23 03:00:00 10.6 2 Sudoeste 5 Norte 0 911.3 0.4 83
2019-09-23 02:00:00 11.2 2 Nordeste 8 Norte 0 911.1 0.5 80
2019-09-23 01:00:00 11.9 3 Norte 5 Sur 0 910.9 0.8 75
2019-09-23 00:00:00 12.7 4 Norte 10 Norte 0 910.9 1.5 72
2019-09-22 23:00:00 14.1 5 Norte 10 Norte 0 910.6 1.7 64
2019-09-22 22:00:00 15.5 3 Noroeste 11 Oeste 0 910.1 1.7 57
2019-09-22 21:00:00 16.5 0 Calma 20 Noroeste 0 909.4 1.5 55
2019-09-22 20:00:00 18.2 8 Noroeste 24 Oeste 0 908.9 1.1 49
2019-09-22 19:00:00 20.8 6 Noroeste 25 Sudoeste 0 908.4 0.4 46
2019-09-22 18:00:00 20.8 13 Oeste 28 Sudoeste 0 907.9 0.3 57
2019-09-22 17:00:00 19.1 8 Oeste 17 Noroeste 0.8 907.8 0.1 85
2019-09-22 16:00:00 18.2 12 Oeste 32 Oeste 1.6 908 0.1 86
2019-09-22 15:00:00 20.4 14 Sudoeste 25 Oeste 0 907.6 -0.6 69
2019-09-22 14:00:00 20 9 Sudoeste 24 Sudoeste 0 907.7 -0.5 70
2019-09-22 13:00:00 19 10 Sudoeste 25 Sudoeste 0 907.9 0 78
2019-09-22 12:00:00 17.6 7 Sudoeste 17 Sudoeste 0 908.2 0.7 83
2019-09-22 11:00:00 16.3 8 Sudoeste 15 Sudoeste 0 908.2 1.3 89
2019-09-22 10:00:00 15.8 5 Sudoeste 16 Sudoeste 0 907.9 0.9 90
2019-09-22 09:00:00 15.7 5 Sur 13 Sudeste 0 907.5 0.6 87
2019-09-22 08:00:00 15.6 5 Sur 11 Sur 0 906.9 0 87
2019-09-22 07:00:00 15.5 5 Sudeste 10 Sudeste 0 907 -0.1 87
2019-09-22 06:00:00 15.3 3 Sur 7 Sudeste 0 906.9 -0.4 88
2019-09-22 05:00:00 15.5 4 Sudeste 13 Sudeste 0 906.9 -0.3 88
2019-09-22 04:00:00 15.8 6 Sudeste 12 Sur 0 907.1 -0.4 87
2019-09-22 03:00:00 16.2 6 Sudeste 15 Sudeste 0 907.3 -0.3 85
2019-09-22 02:00:00 16.5 5 Sudeste 14 Sur 0 907.2 -0.1 84
2019-09-22 01:00:00 17 6 Sur 18 Oeste 0 907.5 0.5 82
2019-09-22 00:00:00 17.6 8 Sur 15 Sur 0 907.6 0.8 81
2019-09-21 23:00:00 18.1 6 Sur 12 Sudeste 0 907.3 0.5 80
2019-09-21 22:00:00 18.5 4 Sudeste 11 Sudeste 0 907 0.2 79
2019-09-21 21:00:00 19.1 5 Sur 11 Sudoeste 0 906.8 0.2 73
2019-09-21 20:00:00 19.5 5 Sudoeste 20 Sudoeste 0 906.8 0.2 69
2019-09-21 19:00:00 19.9 8 Sudoeste 16 Oeste 0 906.8 -0.2 66
2019-09-21 18:00:00 20.4 9 Oeste 27 Sudoeste 0 906.6 -1 62
2019-09-21 17:00:00 21.8 9 Oeste 24 Sudoeste 0 906.6 -1.3 56
2019-09-21 16:00:00 21.4 9 Sudoeste 22 Oeste 0 907 -0.9 58
2019-09-21 15:00:00 21.4 11 Sudoeste 23 Sudoeste 0 907.6 -0.5 61
2019-09-21 14:00:00 20.8 9 Sudoeste 24 Sudoeste 0 907.9 0 61
2019-09-21 13:00:00 20.6 6 Sudoeste 16 Sudoeste 0 907.9 0.2 64
2019-09-21 12:00:00 18.8 5 Sur 13 Sudoeste 0 908.1 0.2 71
2019-09-21 11:00:00 18.1 6 Sudoeste 11 Sudeste 0 907.9 0.4 78
2019-09-21 10:00:00 15.3 0 Calma 4 Oeste 0 907.7 0.2 92
2019-09-21 09:00:00 13.7 2 Noroeste 10 Sudeste 0 907.9 0.4 95
2019-09-21 08:00:00 13.8 4 Sudeste 7 Sudeste 0 907.5 -0.1 95
2019-09-21 07:00:00 14.3 3 Noroeste 13 Sudeste 0 907.5 -0.6 95
2019-09-21 06:00:00 14.3 6 Sudeste 21 Sur 1 907.5 -1 94
2019-09-21 05:00:00 14.4 3 Oeste 11 Oeste 0.2 907.6 -1.9 94
2019-09-21 04:00:00 14.3 6 Oeste 18 Sudeste 6.4 908.1 -0.8 94
2019-09-21 03:00:00 14.7 7 Nordeste 14 Nordeste 4 908.5 0.1 93
2019-09-21 02:00:00 14.6 8 Sur 16 Sudeste 1.8 909.5 1.5 90
2019-09-21 01:00:00 15 9 Sur 26 Sudeste 0 908.9 0 82
2019-09-21 00:00:00 15.7 6 Sur 30 Sur 0 908.4 0.3 75
2019-09-20 23:00:00 18 13 Sudeste 35 Sudeste 0 908 0.2 67
2019-09-20 22:00:00 18.5 9 Sudeste 27 Sur 0 908.9 0.4 79
2019-09-20 21:00:00 18.9 13 Sudeste 34 Sudeste 0 908.1 -0.7 76
2019-09-20 20:00:00 19.9 14 Sudeste 40 Sudeste 0 907.8 -1.1 70
2019-09-20 19:00:00 20.8 12 Sudeste 29 Sudeste 0 908.5 -0.9 66
2019-09-20 18:00:00 21.5 14 Sudeste 31 Sudeste 0 908.8 -0.8 63
2019-09-20 17:00:00 21.8 14 Sudeste 31 Sudeste 0 908.9 -1.2 61
2019-09-20 16:00:00 22.1 14 Sur 33 Sur 0 909.4 -0.9 58
2019-09-20 15:00:00 22.3 14 Sudeste 30 Sudeste 0 909.6 -1.1 58
2019-09-20 14:00:00 21.8 13 Sudeste 29 Sudeste 0 910.1 -1.1 60
2019-09-20 13:00:00 20.8 13 Sur 28 Sur 0 910.3 -0.9 61
2019-09-20 12:00:00 20.3 13 Sudeste 30 Este 0 910.7 -0.3 64
2019-09-20 11:00:00 18.7 14 Sudeste 30 Sudeste 0 911.2 0.7 71
2019-09-20 10:00:00 17.3 13 Sur 26 Sur 0 911.2 0.9 79
2019-09-20 09:00:00 15.6 12 Sur 23 Sudeste 0 911 0.8 90
2019-09-20 08:00:00 15 4 Sudeste 6 Sur 0 910.5 0.1 89
2019-09-20 07:00:00 15.1 2 Oeste 5 Norte 0 910.3 -0.4 88
2019-09-20 06:00:00 15 2 Oeste 5 Noroeste 0 910.2 -0.8 87
2019-09-20 05:00:00 14.9 0 Calma 5 Noroeste 0 910.4 -0.7 86
2019-09-20 04:00:00 15 0 Calma 6 Oeste 0 910.7 -0.5 86
2019-09-20 03:00:00 15.2 0 Calma 6 Sudeste 0 911 -0.4 86
2019-09-20 02:00:00 15.3 2 Noroeste 7 Norte 0 911.1 -0.3 85
2019-09-20 01:00:00 15.5 0 Calma 9 Nordeste 0 911.2 0.3 83
2019-09-20 00:00:00 15.7 3 Noroeste 7 Oeste 0 911.4 0.9 79